sensor_id;sensor_type;location;lat;lon;timestamp;pressure;altitude;pressure_sealevel;temperature;humidity
6528;BME280;64597;42.664;23.256;2023-07-13T00:01:12;94838.13;;;23.84;47.29
6528;BME280;64597;42.664;23.256;2023-07-13T00:03:38;94833.84;;;23.83;46.79
6528;BME280;64597;42.664;23.256;2023-07-13T00:06:07;94836.09;;;23.89;46.94
6528;BME280;64597;42.664;23.256;2023-07-13T00:08:33;94821.13;;;23.74;46.48
6528;BME280;64597;42.664;23.256;2023-07-13T00:11:00;94839.72;;;23.85;46.71
6528;BME280;64597;42.664;23.256;2023-07-13T00:13:26;94827.84;;;23.86;46.66
6528;BME280;64597;42.664;23.256;2023-07-13T00:15:52;94820.06;;;23.84;46.51
6528;BME280;64597;42.664;23.256;2023-07-13T00:18:19;94809.88;;;23.72;46.99
6528;BME280;64597;42.664;23.256;2023-07-13T00:20:45;94804.75;;;23.62;47.60
6528;BME280;64597;42.664;23.256;2023-07-13T00:23:10;94810.16;;;23.62;47.59
6528;BME280;64597;42.664;23.256;2023-07-13T00:25:36;94811.13;;;23.66;48.04
6528;BME280;64597;42.664;23.256;2023-07-13T00:28:02;94758.25;;;23.40;47.82
6528;BME280;64597;42.664;23.256;2023-07-13T00:30:28;94813.66;;;23.71;47.72
6528;BME280;64597;42.664;23.256;2023-07-13T00:32:53;94812.41;;;23.69;47.97
6528;BME280;64597;42.664;23.256;2023-07-13T00:35:19;94804.75;;;23.62;47.64
6528;BME280;64597;42.664;23.256;2023-07-13T00:37:44;94812.03;;;23.62;47.76
6528;BME280;64597;42.664;23.256;2023-07-13T00:40:12;94783.13;;;23.45;48.01
6528;BME280;64597;42.664;23.256;2023-07-13T00:42:38;94806.47;;;23.58;48.11
6528;BME280;64597;42.664;23.256;2023-07-13T00:46:07;94816.28;;;23.54;48.31
6528;BME280;64597;42.664;23.256;2023-07-13T00:47:56;94812.13;;;23.48;48.68
6528;BME280;64597;42.664;23.256;2023-07-13T00:50:23;94823.81;;;23.44;48.94
6528;BME280;64597;42.664;23.256;2023-07-13T00:52:51;94813.38;;;23.42;49.04
6528;BME280;64597;42.664;23.256;2023-07-13T00:55:19;94817.63;;;23.43;48.98
6528;BME280;64597;42.664;23.256;2023-07-13T00:57:46;94822.53;;;23.41;49.25
6528;BME280;64597;42.664;23.256;2023-07-13T01:00:12;94816.66;;;23.39;49.63
6528;BME280;64597;42.664;23.256;2023-07-13T01:02:40;94814.88;;;23.35;49.84
6528;BME280;64597;42.664;23.256;2023-07-13T01:05:12;94799.16;;;23.28;49.89
6528;BME280;64597;42.664;23.256;2023-07-13T01:07:39;94807.72;;;23.30;49.76
6528;BME280;64597;42.664;23.256;2023-07-13T01:10:06;94809.72;;;23.25;50.04
6528;BME280;64597;42.664;23.256;2023-07-13T01:12:32;94804.81;;;23.18;50.73
6528;BME280;64597;42.664;23.256;2023-07-13T01:14:58;94804.00;;;23.18;50.47
6528;BME280;64597;42.664;23.256;2023-07-13T01:17:25;94813.59;;;23.10;50.93
6528;BME280;64597;42.664;23.256;2023-07-13T01:19:51;94784.63;;;22.85;50.47
6528;BME280;64597;42.664;23.256;2023-07-13T01:22:18;94813.22;;;23.03;50.62
6528;BME280;64597;42.664;23.256;2023-07-13T01:24:46;94809.25;;;23.01;50.69
6528;BME280;64597;42.664;23.256;2023-07-13T01:27:12;94792.94;;;22.97;51.15
6528;BME280;64597;42.664;23.256;2023-07-13T01:29:41;94807.28;;;22.92;50.97
6528;BME280;64597;42.664;23.256;2023-07-13T01:32:12;94798.34;;;22.83;51.34
6528;BME280;64597;42.664;23.256;2023-07-13T01:34:38;94796.16;;;22.85;51.22
6528;BME280;64597;42.664;23.256;2023-07-13T01:37:08;94792.44;;;22.73;50.87
6528;BME280;64597;42.664;23.256;2023-07-13T01:39:35;94784.00;;;22.66;51.12
6528;BME280;64597;42.664;23.256;2023-07-13T01:42:00;94790.34;;;22.70;51.25
6528;BME280;64597;42.664;23.256;2023-07-13T01:44:26;94781.44;;;22.61;51.59
6528;BME280;64597;42.664;23.256;2023-07-13T01:46:52;94787.47;;;22.66;51.75
6528;BME280;64597;42.664;23.256;2023-07-13T01:49:17;94791.47;;;22.69;51.88
6528;BME280;64597;42.664;23.256;2023-07-13T01:51:43;94787.47;;;22.53;51.94
6528;BME280;64597;42.664;23.256;2023-07-13T01:54:08;94797.56;;;22.61;52.03
6528;BME280;64597;42.664;23.256;2023-07-13T01:56:34;94792.25;;;22.56;51.83
6528;BME280;64597;42.664;23.256;2023-07-13T01:58:59;94786.31;;;22.59;52.27
6528;BME280;64597;42.664;23.256;2023-07-13T02:01:25;94781.19;;;22.57;52.11
6528;BME280;64597;42.664;23.256;2023-07-13T02:03:50;94806.72;;;22.60;52.40
6528;BME280;64597;42.664;23.256;2023-07-13T02:06:16;94808.59;;;22.59;52.67
6528;BME280;64597;42.664;23.256;2023-07-13T02:08:42;94807.22;;;22.48;52.60
6528;BME280;64597;42.664;23.256;2023-07-13T02:11:08;94810.88;;;22.52;53.12
6528;BME280;64597;42.664;23.256;2023-07-13T02:13:33;94802.84;;;22.39;53.06
6528;BME280;64597;42.664;23.256;2023-07-13T02:16:00;94814.88;;;22.41;53.46
6528;BME280;64597;42.664;23.256;2023-07-13T02:18:25;94817.38;;;22.38;53.55
6528;BME280;64597;42.664;23.256;2023-07-13T02:20:51;94818.97;;;22.39;53.54
6528;BME280;64597;42.664;23.256;2023-07-13T02:23:16;94821.94;;;22.37;53.65
6528;BME280;64597;42.664;23.256;2023-07-13T02:25:41;94816.38;;;22.34;54.12
6528;BME280;64597;42.664;23.256;2023-07-13T02:28:07;94822.16;;;22.27;53.96
6528;BME280;64597;42.664;23.256;2023-07-13T02:30:34;94819.50;;;22.13;54.02
6528;BME280;64597;42.664;23.256;2023-07-13T02:33:00;94825.56;;;22.19;54.18
6528;BME280;64597;42.664;23.256;2023-07-13T02:35:25;94822.06;;;22.19;54.44
6528;BME280;64597;42.664;23.256;2023-07-13T02:37:51;94820.00;;;22.16;54.32
6528;BME280;64597;42.664;23.256;2023-07-13T02:40:16;94797.44;;;22.03;54.56
6528;BME280;64597;42.664;23.256;2023-07-13T02:42:42;94820.59;;;22.12;54.50
6528;BME280;64597;42.664;23.256;2023-07-13T02:45:09;94828.66;;;22.12;54.46
6528;BME280;64597;42.664;23.256;2023-07-13T02:47:35;94823.38;;;22.07;54.72
6528;BME280;64597;42.664;23.256;2023-07-13T02:50:02;94815.59;;;22.06;54.76
6528;BME280;64597;42.664;23.256;2023-07-13T02:52:27;94822.91;;;22.05;54.84
6528;BME280;64597;42.664;23.256;2023-07-13T02:54:53;94818.22;;;21.97;54.75
6528;BME280;64597;42.664;23.256;2023-07-13T02:57:18;94818.22;;;21.97;54.96
6528;BME280;64597;42.664;23.256;2023-07-13T02:59:44;94816.13;;;21.94;55.18
6528;BME280;64597;42.664;23.256;2023-07-13T03:02:09;94819.50;;;21.86;55.10
6528;BME280;64597;42.664;23.256;2023-07-13T03:04:36;94805.09;;;21.82;55.21
6528;BME280;64597;42.664;23.256;2023-07-13T03:07:02;94829.03;;;21.92;55.38
6528;BME280;64597;42.664;23.256;2023-07-13T03:09:28;94818.19;;;21.84;55.21
6528;BME280;64597;42.664;23.256;2023-07-13T03:11:54;94824.38;;;21.84;55.30
6528;BME280;64597;42.664;23.256;2023-07-13T03:14:22;94835.63;;;21.86;56.04
6528;BME280;64597;42.664;23.256;2023-07-13T03:16:49;94833.50;;;21.83;55.94
6528;BME280;64597;42.664;23.256;2023-07-13T03:19:15;94831.94;;;21.82;55.91
6528;BME280;64597;42.664;23.256;2023-07-13T03:21:40;94845.06;;;21.84;56.11
6528;BME280;64597;42.664;23.256;2023-07-13T03:24:06;94810.19;;;21.65;56.16
6528;BME280;64597;42.664;23.256;2023-07-13T03:26:31;94831.72;;;21.79;56.58
6528;BME280;64597;42.664;23.256;2023-07-13T03:28:57;94828.03;;;21.75;56.50
6528;BME280;64597;42.664;23.256;2023-07-13T03:31:26;94838.47;;;21.76;56.72
6528;BME280;64597;42.664;23.256;2023-07-13T03:33:54;94819.16;;;21.61;56.86
6528;BME280;64597;42.664;23.256;2023-07-13T03:36:22;94828.50;;;21.63;56.90
6528;BME280;64597;42.664;23.256;2023-07-13T03:38:53;94844.41;;;21.73;56.78
6528;BME280;64597;42.664;23.256;2023-07-13T03:41:19;94833.09;;;21.63;56.78
6528;BME280;64597;42.664;23.256;2023-07-13T03:43:45;94846.50;;;21.76;56.91
6528;BME280;64597;42.664;23.256;2023-07-13T03:46:10;94839.25;;;21.77;57.06
6528;BME280;64597;42.664;23.256;2023-07-13T03:48:35;94840.03;;;21.77;57.06
6528;BME280;64597;42.664;23.256;2023-07-13T03:51:01;94842.66;;;21.82;57.10
6528;BME280;64597;42.664;23.256;2023-07-13T03:53:27;94834.66;;;21.77;57.36
6528;BME280;64597;42.664;23.256;2023-07-13T03:55:52;94842.88;;;21.86;57.35
6528;BME280;64597;42.664;23.256;2023-07-13T03:58:34;94829.75;;;21.84;57.52
6528;BME280;64597;42.664;23.256;2023-07-13T04:01:00;94807.44;;;21.70;57.35
6528;BME280;64597;42.664;23.256;2023-07-13T04:03:27;94834.13;;;21.94;57.26
6528;BME280;64597;42.664;23.256;2023-07-13T04:05:56;94832.94;;;21.86;57.21
6528;BME280;64597;42.664;23.256;2023-07-13T04:08:32;94842.88;;;21.99;57.14
6528;BME280;64597;42.664;23.256;2023-07-13T04:10:59;94817.22;;;21.93;57.33
6528;BME280;64597;42.664;23.256;2023-07-13T04:13:25;94837.19;;;22.14;56.99
6528;BME280;64597;42.664;23.256;2023-07-13T04:15:52;94846.88;;;22.16;57.16
6528;BME280;64597;42.664;23.256;2023-07-13T04:18:17;94838.69;;;22.21;57.15
6528;BME280;64597;42.664;23.256;2023-07-13T04:20:43;94828.34;;;22.14;56.91
6528;BME280;64597;42.664;23.256;2023-07-13T04:23:08;94830.34;;;22.22;56.97
6528;BME280;64597;42.664;23.256;2023-07-13T04:25:34;94829.16;;;22.28;56.69
6528;BME280;64597;42.664;23.256;2023-07-13T04:28:03;94847.94;;;22.42;56.68
6528;BME280;64597;42.664;23.256;2023-07-13T04:30:28;94837.00;;;22.38;56.76
6528;BME280;64597;42.664;23.256;2023-07-13T04:32:54;94843.41;;;22.51;56.46
6528;BME280;64597;42.664;23.256;2023-07-13T04:35:20;94846.81;;;22.56;56.73
6528;BME280;64597;42.664;23.256;2023-07-13T04:37:48;94849.41;;;22.61;56.78
6528;BME280;64597;42.664;23.256;2023-07-13T04:40:15;94858.19;;;22.67;56.45
6528;BME280;64597;42.664;23.256;2023-07-13T04:42:41;94841.06;;;22.63;57.11
6528;BME280;64597;42.664;23.256;2023-07-13T04:45:07;94860.50;;;22.82;57.23
6528;BME280;64597;42.664;23.256;2023-07-13T04:47:33;94859.00;;;22.89;57.63
6528;BME280;64597;42.664;23.256;2023-07-13T04:49:58;94865.06;;;22.95;57.47
6528;BME280;64597;42.664;23.256;2023-07-13T04:52:24;94868.00;;;23.07;57.20
6528;BME280;64597;42.664;23.256;2023-07-13T04:54:50;94866.97;;;23.17;57.46
6528;BME280;64597;42.664;23.256;2023-07-13T04:57:15;94866.38;;;23.20;57.20
6528;BME280;64597;42.664;23.256;2023-07-13T04:59:41;94862.78;;;23.24;57.34
6528;BME280;64597;42.664;23.256;2023-07-13T05:02:07;94854.06;;;23.27;57.53
6528;BME280;64597;42.664;23.256;2023-07-13T05:04:32;94855.88;;;23.32;57.19
6528;BME280;64597;42.664;23.256;2023-07-13T05:06:59;94865.47;;;23.46;56.92
6528;BME280;64597;42.664;23.256;2023-07-13T05:09:25;94869.50;;;23.57;56.39
6528;BME280;64597;42.664;23.256;2023-07-13T05:11:50;94863.63;;;23.55;56.17
6528;BME280;64597;42.664;23.256;2023-07-13T05:14:16;94864.78;;;23.63;56.12
6528;BME280;64597;42.664;23.256;2023-07-13T05:16:42;94867.41;;;23.77;55.63
6528;BME280;64597;42.664;23.256;2023-07-13T05:19:08;94882.19;;;23.88;55.80
6528;BME280;64597;42.664;23.256;2023-07-13T05:21:34;94851.44;;;23.89;56.06
6528;BME280;64597;42.664;23.256;2023-07-13T05:23:59;94851.94;;;23.91;55.57
6528;BME280;64597;42.664;23.256;2023-07-13T05:26:24;94875.53;;;24.16;55.50
6528;BME280;64597;42.664;23.256;2023-07-13T05:28:50;94881.94;;;24.28;55.28
6528;BME280;64597;42.664;23.256;2023-07-13T05:31:15;94883.53;;;24.38;54.83
6528;BME280;64597;42.664;23.256;2023-07-13T05:33:41;94880.06;;;24.46;54.55
6528;BME280;64597;42.664;23.256;2023-07-13T05:36:06;94871.69;;;24.56;54.48
6528;BME280;64597;42.664;23.256;2023-07-13T05:38:32;94881.56;;;24.69;53.93
6528;BME280;64597;42.664;23.256;2023-07-13T05:40:58;94877.94;;;24.74;53.47
6528;BME280;64597;42.664;23.256;2023-07-13T05:43:24;94875.72;;;24.84;52.53
6528;BME280;64597;42.664;23.256;2023-07-13T05:45:55;94887.50;;;25.05;52.24
6528;BME280;64597;42.664;23.256;2023-07-13T05:48:21;94889.75;;;25.20;51.99
6528;BME280;64597;42.664;23.256;2023-07-13T05:50:46;94886.72;;;25.30;51.39
6528;BME280;64597;42.664;23.256;2023-07-13T05:53:12;94881.31;;;25.48;50.53
6528;BME280;64597;42.664;23.256;2023-07-13T05:55:45;94859.09;;;25.51;50.39
6528;BME280;64597;42.664;23.256;2023-07-13T05:58:18;94887.47;;;25.82;50.01
6528;BME280;64597;42.664;23.256;2023-07-13T06:00:45;94868.63;;;26.03;48.90
6528;BME280;64597;42.664;23.256;2023-07-13T06:03:10;94863.69;;;26.22;48.66
6528;BME280;64597;42.664;23.256;2023-07-13T06:05:36;94867.50;;;26.50;48.46
6528;BME280;64597;42.664;23.256;2023-07-13T06:08:03;94857.72;;;26.66;47.48
6528;BME280;64597;42.664;23.256;2023-07-13T06:10:29;94867.09;;;26.98;46.60
6528;BME280;64597;42.664;23.256;2023-07-13T06:12:57;94864.50;;;27.22;46.20
6528;BME280;64597;42.664;23.256;2023-07-13T06:15:22;94868.34;;;27.42;44.95
6528;BME280;64597;42.664;23.256;2023-07-13T06:17:48;94866.19;;;27.68;44.12
6528;BME280;64597;42.664;23.256;2023-07-13T06:20:14;94875.38;;;28.08;43.29
6528;BME280;64597;42.664;23.256;2023-07-13T06:22:39;94861.81;;;28.32;43.31
6528;BME280;64597;42.664;23.256;2023-07-13T06:25:05;94881.09;;;28.64;43.56
6528;BME280;64597;42.664;23.256;2023-07-13T06:27:30;94873.00;;;29.03;42.22
6528;BME280;64597;42.664;23.256;2023-07-13T06:29:56;94878.81;;;29.42;41.28
6528;BME280;64597;42.664;23.256;2023-07-13T06:32:21;94873.81;;;29.71;41.64
6528;BME280;64597;42.664;23.256;2023-07-13T06:34:47;94867.84;;;29.93;41.35
6528;BME280;64597;42.664;23.256;2023-07-13T06:37:12;94868.41;;;30.15;40.50
6528;BME280;64597;42.664;23.256;2023-07-13T06:39:38;94868.69;;;30.56;40.44
6528;BME280;64597;42.664;23.256;2023-07-13T06:42:03;94872.88;;;31.01;39.18
6528;BME280;64597;42.664;23.256;2023-07-13T06:44:29;94864.19;;;31.14;38.79
6528;BME280;64597;42.664;23.256;2023-07-13T06:46:55;94866.91;;;31.49;37.93
6528;BME280;64597;42.664;23.256;2023-07-13T06:49:20;94854.34;;;31.83;35.82
6528;BME280;64597;42.664;23.256;2023-07-13T06:51:46;94861.34;;;32.22;35.47
6528;BME280;64597;42.664;23.256;2023-07-13T06:54:12;94855.78;;;32.41;35.25
6528;BME280;64597;42.664;23.256;2023-07-13T06:56:38;94856.81;;;32.78;34.74
6528;BME280;64597;42.664;23.256;2023-07-13T06:59:03;94854.00;;;32.97;34.08
6528;BME280;64597;42.664;23.256;2023-07-13T07:01:29;94843.78;;;33.20;32.24
6528;BME280;64597;42.664;23.256;2023-07-13T07:03:54;94862.50;;;33.48;32.06
6528;BME280;64597;42.664;23.256;2023-07-13T07:06:21;94862.44;;;33.74;31.04
6528;BME280;64597;42.664;23.256;2023-07-13T07:08:49;94851.34;;;33.93;30.25
6528;BME280;64597;42.664;23.256;2023-07-13T07:11:22;94854.34;;;34.18;30.87
6528;BME280;64597;42.664;23.256;2023-07-13T07:13:48;94860.91;;;34.10;32.41
6528;BME280;64597;42.664;23.256;2023-07-13T07:16:14;94858.31;;;34.24;31.26
6528;BME280;64597;42.664;23.256;2023-07-13T07:18:39;94863.66;;;34.50;31.18
6528;BME280;64597;42.664;23.256;2023-07-13T07:21:05;94851.59;;;34.58;30.35
6528;BME280;64597;42.664;23.256;2023-07-13T07:23:31;94839.53;;;34.66;30.74
6528;BME280;64597;42.664;23.256;2023-07-13T07:25:56;94838.06;;;34.79;30.54
6528;BME280;64597;42.664;23.256;2023-07-13T07:28:22;94849.25;;;35.08;29.50
6528;BME280;64597;42.664;23.256;2023-07-13T07:30:48;94824.84;;;34.96;29.06
6528;BME280;64597;42.664;23.256;2023-07-13T07:33:14;94852.91;;;35.36;29.61
6528;BME280;64597;42.664;23.256;2023-07-13T07:35:42;94844.81;;;35.57;29.79
6528;BME280;64597;42.664;23.256;2023-07-13T07:38:08;94842.56;;;35.91;28.86
6528;BME280;64597;42.664;23.256;2023-07-13T07:40:39;94829.22;;;35.83;27.75
6528;BME280;64597;42.664;23.256;2023-07-13T07:43:06;94842.28;;;36.31;27.94
6528;BME280;64597;42.664;23.256;2023-07-13T07:45:32;94828.97;;;36.48;26.96
6528;BME280;64597;42.664;23.256;2023-07-13T07:47:57;94830.56;;;36.59;27.15
6528;BME280;64597;42.664;23.256;2023-07-13T07:50:27;94834.03;;;36.84;26.52
6528;BME280;64597;42.664;23.256;2023-07-13T07:52:53;94829.34;;;36.99;27.19
6528;BME280;64597;42.664;23.256;2023-07-13T07:55:21;94826.16;;;37.22;26.86
6528;BME280;64597;42.664;23.256;2023-07-13T07:57:47;94824.97;;;37.19;27.21
6528;BME280;64597;42.664;23.256;2023-07-13T08:00:14;94820.63;;;37.32;26.60
6528;BME280;64597;42.664;23.256;2023-07-13T08:02:40;94816.63;;;37.54;26.91
6528;BME280;64597;42.664;23.256;2023-07-13T08:05:07;94802.38;;;37.73;26.61
6528;BME280;64597;42.664;23.256;2023-07-13T08:07:33;94801.56;;;37.83;25.32
6528;BME280;64597;42.664;23.256;2023-07-13T08:09:59;94803.03;;;37.98;25.96
6528;BME280;64597;42.664;23.256;2023-07-13T08:12:25;94788.47;;;38.02;25.79
6528;BME280;64597;42.664;23.256;2023-07-13T08:14:50;94802.50;;;38.28;25.80
6528;BME280;64597;42.664;23.256;2023-07-13T08:17:22;94783.63;;;38.27;26.23
6528;BME280;64597;42.664;23.256;2023-07-13T08:19:48;94788.66;;;38.35;25.10
6528;BME280;64597;42.664;23.256;2023-07-13T08:22:13;94798.53;;;38.33;25.44
6528;BME280;64597;42.664;23.256;2023-07-13T08:24:39;94800.41;;;38.43;24.75
6528;BME280;64597;42.664;23.256;2023-07-13T08:27:05;94779.03;;;38.54;25.09
6528;BME280;64597;42.664;23.256;2023-07-13T08:29:30;94797.00;;;38.76;24.67
6528;BME280;64597;42.664;23.256;2023-07-13T08:31:58;94801.53;;;38.93;24.41
6528;BME280;64597;42.664;23.256;2023-07-13T08:34:24;94780.59;;;38.99;23.74
6528;BME280;64597;42.664;23.256;2023-07-13T08:36:49;94785.50;;;39.22;23.67
6528;BME280;64597;42.664;23.256;2023-07-13T08:39:15;94767.91;;;39.05;23.83
6528;BME280;64597;42.664;23.256;2023-07-13T08:41:40;94788.59;;;39.27;23.50
6528;BME280;64597;42.664;23.256;2023-07-13T08:44:38;94780.47;;;39.47;23.06
6528;BME280;64597;42.664;23.256;2023-07-13T08:47:00;94782.63;;;39.66;23.01
6528;BME280;64597;42.664;23.256;2023-07-13T08:49:27;94782.47;;;39.77;22.40
6528;BME280;64597;42.664;23.256;2023-07-13T08:52:06;94782.25;;;39.94;22.85
6528;BME280;64597;42.664;23.256;2023-07-13T08:54:39;94781.28;;;40.08;22.59
6528;BME280;64597;42.664;23.256;2023-07-13T08:57:18;94781.69;;;40.33;22.05
6528;BME280;64597;42.664;23.256;2023-07-13T08:59:44;94776.66;;;40.51;22.28
6528;BME280;64597;42.664;23.256;2023-07-13T09:02:42;94794.97;;;40.68;21.70
6528;BME280;64597;42.664;23.256;2023-07-13T09:05:22;94796.75;;;40.78;21.36
6528;BME280;64597;42.664;23.256;2023-07-13T09:08:08;94810.91;;;40.84;21.38
6528;BME280;64597;42.664;23.256;2023-07-13T09:10:45;94799.09;;;40.80;21.75
6528;BME280;64597;42.664;23.256;2023-07-13T09:15:47;94801.66;;;41.14;20.66
6528;BME280;64597;42.664;23.256;2023-07-13T09:18:44;94803.91;;;41.22;20.40
6528;BME280;64597;42.664;23.256;2023-07-13T09:21:15;94801.38;;;41.31;20.72
6528;BME280;64597;42.664;23.256;2023-07-13T09:23:42;94795.13;;;41.27;20.57
6528;BME280;64597;42.664;23.256;2023-07-13T09:28:44;94802.50;;;41.34;20.42
6528;BME280;64597;42.664;23.256;2023-07-13T09:31:16;94791.91;;;41.29;20.44
6528;BME280;64597;42.664;23.256;2023-07-13T09:33:43;94805.53;;;41.59;19.91
6528;BME280;64597;42.664;23.256;2023-07-13T09:36:21;94807.56;;;41.78;19.45
6528;BME280;64597;42.664;23.256;2023-07-13T09:39:11;94776.59;;;41.63;19.62
6528;BME280;64597;42.664;23.256;2023-07-13T09:41:54;94787.78;;;41.37;16.86
6528;BME280;64597;42.664;23.256;2023-07-13T09:44:56;94790.84;;;41.42;15.73
6528;BME280;64597;42.664;23.256;2023-07-13T09:47:24;94790.06;;;41.61;16.01
6528;BME280;64597;42.664;23.256;2023-07-13T09:50:01;94788.38;;;41.67;15.10
6528;BME280;64597;42.664;23.256;2023-07-13T09:52:44;94771.59;;;41.55;15.93
6528;BME280;64597;42.664;23.256;2023-07-13T09:57:49;94778.25;;;41.77;15.63
6528;BME280;64597;42.664;23.256;2023-07-13T10:00:33;94757.94;;;41.83;15.81
6528;BME280;64597;42.664;23.256;2023-07-13T10:03:21;94775.16;;;41.75;14.82
6528;BME280;64597;42.664;23.256;2023-07-13T10:05:50;94758.88;;;41.57;14.91
6528;BME280;64597;42.664;23.256;2023-07-13T10:08:24;94752.78;;;41.46;15.94
6528;BME280;64597;42.664;23.256;2023-07-13T10:11:00;94758.75;;;41.25;15.35
6528;BME280;64597;42.664;23.256;2023-07-13T10:13:33;94759.72;;;41.15;16.51
6528;BME280;64597;42.664;23.256;2023-07-13T10:16:02;94754.69;;;41.10;15.90
6528;BME280;64597;42.664;23.256;2023-07-13T10:18:40;94735.84;;;41.25;16.85
6528;BME280;64597;42.664;23.256;2023-07-13T10:21:15;94762.75;;;41.44;16.17
6528;BME280;64597;42.664;23.256;2023-07-13T10:23:41;94758.88;;;41.57;16.02
6528;BME280;64597;42.664;23.256;2023-07-13T10:26:13;94756.28;;;41.70;16.72
6528;BME280;64597;42.664;23.256;2023-07-13T10:28:42;94738.94;;;41.66;16.04
6528;BME280;64597;42.664;23.256;2023-07-13T10:31:13;94740.19;;;41.81;16.60
6528;BME280;64597;42.664;23.256;2023-07-13T10:33:40;94744.72;;;41.91;15.77
6528;BME280;64597;42.664;23.256;2023-07-13T10:36:31;94752.13;;;41.78;16.02
6528;BME280;64597;42.664;23.256;2023-07-13T10:39:01;94740.97;;;41.81;16.08
6528;BME280;64597;42.664;23.256;2023-07-13T10:41:31;94735.88;;;41.96;15.97
6528;BME280;64597;42.664;23.256;2023-07-13T10:43:59;94734.88;;;42.06;16.57
6528;BME280;64597;42.664;23.256;2023-07-13T10:46:27;94743.81;;;42.14;16.04
6528;BME280;64597;42.664;23.256;2023-07-13T10:49:02;94739.00;;;41.98;15.80
6528;BME280;64597;42.664;23.256;2023-07-13T10:51:30;94709.97;;;41.70;16.78
6528;BME280;64597;42.664;23.256;2023-07-13T10:56:42;94696.69;;;41.42;15.82
6528;BME280;64597;42.664;23.256;2023-07-13T10:59:18;94712.94;;;41.21;16.30
6528;BME280;64597;42.664;23.256;2023-07-13T11:04:40;94711.66;;;41.05;16.75
6528;BME280;64597;42.664;23.256;2023-07-13T11:07:18;94698.81;;;40.95;17.06
6528;BME280;64597;42.664;23.256;2023-07-13T11:09:49;94696.22;;;40.88;16.76
6528;BME280;64597;42.664;23.256;2023-07-13T11:15:10;94690.69;;;40.65;17.88
6528;BME280;64597;42.664;23.256;2023-07-13T11:17:48;94683.25;;;40.62;17.53
6528;BME280;64597;42.664;23.256;2023-07-13T11:22:47;94683.63;;;40.41;17.12
6528;BME280;64597;42.664;23.256;2023-07-13T11:25:30;94669.53;;;40.32;18.10
6528;BME280;64597;42.664;23.256;2023-07-13T11:30:37;94686.75;;;40.43;17.81
6528;BME280;64597;42.664;23.256;2023-07-13T11:38:38;94667.72;;;40.22;18.48
6528;BME280;64597;42.664;23.256;2023-07-13T11:41:17;94660.94;;;40.26;18.01
6528;BME280;64597;42.664;23.256;2023-07-13T11:43:42;94674.13;;;40.19;17.85
6528;BME280;64597;42.664;23.256;2023-07-13T11:46:16;94667.44;;;40.16;17.80
6528;BME280;64597;42.664;23.256;2023-07-13T11:48:46;94648.34;;;40.02;16.47
6528;BME280;64597;42.664;23.256;2023-07-13T11:51:20;94666.88;;;40.02;17.41
6528;BME280;64597;42.664;23.256;2023-07-13T11:53:49;94658.13;;;40.07;17.65
6528;BME280;64597;42.664;23.256;2023-07-13T11:56:15;94658.25;;;40.00;17.99
6528;BME280;64597;42.664;23.256;2023-07-13T11:58:41;94659.63;;;39.62;17.05
6528;BME280;64597;42.664;23.256;2023-07-13T12:01:16;94650.34;;;39.45;18.05
6528;BME280;64597;42.664;23.256;2023-07-13T12:03:44;94656.84;;;39.62;18.44
6528;BME280;64597;42.664;23.256;2023-07-13T12:06:27;94645.31;;;39.67;18.14
6528;BME280;64597;42.664;23.256;2023-07-13T12:08:56;94648.56;;;39.62;18.22
6528;BME280;64597;42.664;23.256;2023-07-13T12:11:22;94634.28;;;39.67;19.03
6528;BME280;64597;42.664;23.256;2023-07-13T12:13:48;94619.88;;;39.56;18.53
6528;BME280;64597;42.664;23.256;2023-07-13T12:16:44;94644.34;;;39.80;18.69
6528;BME280;64597;42.664;23.256;2023-07-13T12:19:28;94638.25;;;39.66;18.47
6528;BME280;64597;42.664;23.256;2023-07-13T12:21:59;94621.06;;;39.55;18.41
6528;BME280;64597;42.664;23.256;2023-07-13T12:24:25;94619.44;;;39.57;18.47
6528;BME280;64597;42.664;23.256;2023-07-13T12:27:01;94621.34;;;39.60;19.36
6528;BME280;64597;42.664;23.256;2023-07-13T12:29:27;94615.53;;;39.55;19.07
6528;BME280;64597;42.664;23.256;2023-07-13T12:31:53;94614.22;;;39.63;18.92
6528;BME280;64597;42.664;23.256;2023-07-13T12:34:23;94604.63;;;39.71;18.88
6528;BME280;64597;42.664;23.256;2023-07-13T12:36:56;94608.41;;;39.57;19.30
6528;BME280;64597;42.664;23.256;2023-07-13T12:39:39;94598.97;;;39.55;18.61
6528;BME280;64597;42.664;23.256;2023-07-13T12:42:29;94585.63;;;39.49;18.78
6528;BME280;64597;42.664;23.256;2023-07-13T12:45:01;94595.03;;;39.56;18.57
6528;BME280;64597;42.664;23.256;2023-07-13T12:47:27;94594.53;;;39.61;18.56
6528;BME280;64597;42.664;23.256;2023-07-13T12:49:58;94586.75;;;39.56;18.87
6528;BME280;64597;42.664;23.256;2023-07-13T12:52:34;94595.88;;;39.49;18.56
6528;BME280;64597;42.664;23.256;2023-07-13T12:55:40;94592.81;;;39.43;18.72
6528;BME280;64597;42.664;23.256;2023-07-13T12:58:09;94587.16;;;39.50;18.73
6528;BME280;64597;42.664;23.256;2023-07-13T13:00:38;94580.97;;;39.43;18.20
6528;BME280;64597;42.664;23.256;2023-07-13T13:03:18;94573.50;;;39.43;18.67
6528;BME280;64597;42.664;23.256;2023-07-13T13:05:46;94578.31;;;39.36;19.02
6528;BME280;64597;42.664;23.256;2023-07-13T13:08:12;94582.28;;;39.35;19.07
6528;BME280;64597;42.664;23.256;2023-07-13T13:10:38;94571.47;;;39.21;18.63
6528;BME280;64597;42.664;23.256;2023-07-13T13:13:06;94559.69;;;39.17;18.28
6528;BME280;64597;42.664;23.256;2023-07-13T13:15:33;94558.56;;;39.14;19.35
6528;BME280;64597;42.664;23.256;2023-07-13T13:17:59;94560.47;;;39.17;19.04
6528;BME280;64597;42.664;23.256;2023-07-13T13:20:25;94564.13;;;39.07;18.66
6528;BME280;64597;42.664;23.256;2023-07-13T13:22:53;94563.97;;;38.91;18.91
6528;BME280;64597;42.664;23.256;2023-07-13T13:25:21;94568.50;;;38.78;18.51
6528;BME280;64597;42.664;23.256;2023-07-13T13:27:47;94559.25;;;38.58;18.03
6528;BME280;64597;42.664;23.256;2023-07-13T13:30:16;94556.34;;;38.72;18.78
6528;BME280;64597;42.664;23.256;2023-07-13T13:32:47;94564.69;;;38.65;18.26
6528;BME280;64597;42.664;23.256;2023-07-13T13:35:14;94560.38;;;38.64;19.74